Time;durP1;ratioP1;P1;durP2;ratioP2;P2;SDS_P1;SDS_P2;PMS_P1;PMS_P2;Temp;Humidity;BMP_temperature;BMP_pressure;BME280_temperature;BME280_humidity;BME280_pressure;Samples;Min_cycle;Max_cycle;Signal;HPM_P1;HPM_P2
2021/12/16 00:01:46;;;;;;;29.10;19.40;;;9.30;99.90;;;;;;5035529;28;20191;-76
2021/12/16 00:05:03;;;;;;;30.23;19.23;;;9.30;99.90;;;;;;5033559;28;20203;-75
2021/12/16 00:31:48;;;;;;;30.77;19.33;;;9.20;99.90;;;;;;5028098;28;20673;-70
2021/12/16 00:34:15;;;;;;;30.40;19.30;;;9.20;99.90;;;;;;5028277;28;20189;-76
2021/12/16 00:36:43;;;;;;;32.03;20.43;;;9.20;99.90;;;;;;5031965;28;20203;-75
2021/12/16 00:39:16;;;;;;;31.37;21.53;;;9.10;99.90;;;;;;5034563;28;20690;-74
2021/12/16 00:41:44;;;;;;;35.27;21.63;;;9.10;99.90;;;;;;5029694;28;20546;-74
2021/12/16 00:45:00;;;;;;;37.60;22.53;;;9.10;99.90;;;;;;5032638;28;20262;-72
2021/12/16 00:47:49;;;;;;;34.03;19.97;;;9.10;99.90;;;;;;5035113;28;20263;-83
2021/12/16 00:54:04;;;;;;;32.37;20.93;;;9.10;99.90;;;;;;5029874;28;20737;-72
2021/12/16 00:55:55;;;;;;;32.43;20.20;;;9.00;99.90;;;;;;5035400;28;20217;-82
2021/12/16 00:58:30;;;;;;;37.47;21.67;;;9.00;99.90;;;;;;5044155;28;20220;-79
2021/12/16 01:03:37;;;;;;;36.43;21.30;;;9.00;99.90;;;;;;5047537;28;20186;-73
2021/12/16 01:09:04;;;;;;;33.30;21.13;;;9.00;99.90;;;;;;5046203;28;20641;-73
2021/12/16 01:42:21;;;;;;;35.80;20.63;;;8.70;99.90;;;;;;5024289;28;20315;-76
2021/12/16 01:50:03;;;;;;;31.23;20.37;;;8.80;99.90;;;;;;5040784;28;20949;-81
2021/12/16 01:53:04;;;;;;;33.60;19.80;;;8.80;99.90;;;;;;5047160;28;20670;-70
2021/12/16 01:55:34;;;;;;;34.57;20.73;;;8.80;99.90;;;;;;5042497;28;20230;-77
2021/12/16 01:58:17;;;;;;;32.60;19.43;;;8.80;99.90;;;;;;5039695;28;20727;-74
2021/12/16 02:01:09;;;;;;;31.90;18.50;;;8.80;99.90;;;;;;5038591;28;20679;-72
2021/12/16 02:03:41;;;;;;;34.00;18.47;;;8.80;99.90;;;;;;5034733;28;20178;-76
2021/12/16 02:08:47;;;;;;;25.07;17.27;;;8.90;99.90;;;;;;5035613;28;20186;-77
2021/12/16 02:11:30;;;;;;;21.17;15.13;;;8.90;99.90;;;;;;5034987;28;20195;-75
2021/12/16 02:31:13;;;;;;;20.30;12.93;;;8.80;99.90;;;;;;5041909;28;20195;-72
2021/12/16 02:33:37;;;;;;;18.70;12.10;;;8.90;99.90;;;;;;5053244;28;20281;-72
2021/12/16 02:38:46;;;;;;;17.67;11.73;;;8.90;99.90;;;;;;5040395;28;20268;-73
2021/12/16 02:41:12;;;;;;;17.83;10.73;;;8.90;99.90;;;;;;5044216;28;20268;-73
2021/12/16 02:44:05;;;;;;;14.53;10.43;;;8.90;99.90;;;;;;5032258;28;20196;-72
2021/12/16 02:49:07;;;;;;;18.40;11.60;;;8.90;99.90;;;;;;5032352;28;20947;-73
2021/12/16 02:51:33;;;;;;;15.70;9.77;;;8.90;99.90;;;;;;5036988;28;20191;-69
2021/12/16 02:54:04;;;;;;;18.77;11.50;;;8.90;99.90;;;;;;5041737;28;20190;-72
2021/12/16 02:56:30;;;;;;;20.97;11.70;;;8.90;99.90;;;;;;5027088;28;20215;-68
2021/12/16 02:58:57;;;;;;;20.67;11.17;;;8.90;99.90;;;;;;5046545;28;20277;-70
2021/12/16 03:01:37;;;;;;;15.90;11.47;;;8.90;99.90;;;;;;5036940;28;20749;-70
2021/12/16 03:04:10;;;;;;;17.10;10.43;;;8.90;99.90;;;;;;5027381;28;20199;-70
2021/12/16 03:06:38;;;;;;;15.60;10.80;;;8.90;99.90;;;;;;5026061;28;20251;-71
2021/12/16 03:09:05;;;;;;;14.57;9.53;;;8.90;99.90;;;;;;5047785;28;20222;-73
2021/12/16 03:11:42;;;;;;;18.87;11.50;;;8.90;99.90;;;;;;5037975;28;20207;-72
2021/12/16 03:19:36;;;;;;;16.97;10.20;;;8.90;99.90;;;;;;5038309;28;20207;-69
2021/12/16 03:22:04;;;;;;;15.03;10.37;;;8.90;99.90;;;;;;5039809;28;20178;-67
2021/12/16 03:25:06;;;;;;;18.70;10.37;;;8.90;99.90;;;;;;5041083;28;20262;-77
2021/12/16 03:28:11;;;;;;;16.27;10.13;;;8.90;99.90;;;;;;5031808;28;20185;-75
2021/12/16 03:33:45;;;;;;;17.73;11.00;;;8.90;99.90;;;;;;5033300;28;20199;-70
2021/12/16 03:36:31;;;;;;;20.03;10.97;;;8.90;99.90;;;;;;5037895;28;20937;-69
2021/12/16 03:39:09;;;;;;;14.20;10.97;;;8.90;99.90;;;;;;5028510;28;20236;-70
2021/12/16 03:41:35;;;;;;;17.50;9.83;;;8.90;99.90;;;;;;5049168;28;20278;-67
2021/12/16 03:44:08;;;;;;;15.10;10.50;;;8.90;99.90;;;;;;5036681;28;20693;-67
2021/12/16 03:46:38;;;;;;;16.30;10.90;;;8.80;99.90;;;;;;5039691;28;20206;-69
2021/12/16 03:49:11;;;;;;;15.00;10.70;;;8.80;99.90;;;;;;5033813;28;20257;-66
2021/12/16 03:51:41;;;;;;;13.33;8.97;;;8.80;99.90;;;;;;5035288;28;20656;-68
2021/12/16 03:54:09;;;;;;;11.30;9.70;;;8.80;99.90;;;;;;5027552;28;20203;-71
2021/12/16 03:56:35;;;;;;;13.30;9.30;;;8.80;99.90;;;;;;5046428;28;20219;-67
2021/12/16 03:59:00;;;;;;;11.97;9.53;;;8.80;99.90;;;;;;5035291;28;20223;-69
2021/12/16 04:01:28;;;;;;;13.30;10.00;;;8.80;99.90;;;;;;5036664;28;20258;-65
2021/12/16 04:03:54;;;;;;;13.33;9.67;;;8.80;99.90;;;;;;5035880;28;20241;-65
2021/12/16 04:06:22;;;;;;;18.87;11.20;;;8.80;99.90;;;;;;5036914;28;20553;-64
2021/12/16 04:08:48;;;;;;;18.47;10.60;;;8.80;99.90;;;;;;5036839;28;20223;-66
2021/12/16 04:11:21;;;;;;;15.47;9.70;;;8.90;99.90;;;;;;5036377;28;20280;-65
2021/12/16 04:13:59;;;;;;;17.03;11.20;;;8.80;99.90;;;;;;5032537;28;20236;-66
2021/12/16 04:16:36;;;;;;;15.77;9.70;;;8.80;99.90;;;;;;5036668;28;20234;-65
2021/12/16 04:19:07;;;;;;;14.73;9.93;;;8.90;99.90;;;;;;5029806;28;20679;-64
2021/12/16 04:21:33;;;;;;;12.43;9.80;;;8.80;99.90;;;;;;5029418;28;20183;-66
2021/12/16 04:23:59;;;;;;;18.33;10.53;;;8.80;99.90;;;;;;5034363;28;20693;-65
2021/12/16 04:26:27;;;;;;;18.00;11.40;;;8.80;99.90;;;;;;5036439;28;20662;-65
2021/12/16 04:28:54;;;;;;;23.63;11.23;;;8.80;99.90;;;;;;5035089;28;20690;-65
2021/12/16 04:31:20;;;;;;;14.80;11.23;;;8.80;99.90;;;;;;5037468;28;21025;-65
2021/12/16 04:33:46;;;;;;;15.43;10.03;;;8.80;99.90;;;;;;5031325;28;20208;-66
2021/12/16 04:36:13;;;;;;;18.17;11.07;;;8.80;99.90;;;;;;5038830;28;20270;-66
2021/12/16 04:38:42;;;;;;;13.40;10.03;;;8.80;99.90;;;;;;5032627;28;20203;-66
2021/12/16 04:41:11;;;;;;;17.33;10.63;;;8.80;99.90;;;;;;5034749;28;20264;-65
2021/12/16 04:43:40;;;;;;;15.20;9.93;;;8.80;99.90;;;;;;5035277;28;20278;-65
2021/12/16 04:46:09;;;;;;;13.90;10.83;;;8.80;99.90;;;;;;5051118;28;20200;-64
2021/12/16 04:48:36;;;;;;;15.47;10.23;;;8.70;99.90;;;;;;5034398;28;20228;-64
2021/12/16 04:51:03;;;;;;;15.67;10.27;;;8.70;99.90;;;;;;5055150;28;20212;-63
2021/12/16 04:53:29;;;;;;;15.30;10.63;;;8.70;99.90;;;;;;5039841;28;20195;-71
2021/12/16 04:55:55;;;;;;;16.47;11.77;;;8.70;99.90;;;;;;5052250;28;20695;-76
2021/12/16 04:58:21;;;;;;;20.10;11.03;;;8.80;99.90;;;;;;5042736;28;20209;-74
2021/12/16 05:00:46;;;;;;;15.27;11.17;;;8.90;99.90;;;;;;5047896;28;20708;-74
2021/12/16 05:03:12;;;;;;;14.50;10.07;;;9.00;99.90;;;;;;5034996;28;20211;-65
2021/12/16 05:05:38;;;;;;;19.27;10.63;;;9.10;99.90;;;;;;5039350;28;20229;-65
2021/12/16 05:08:03;;;;;;;20.67;10.30;;;9.10;99.90;;;;;;5031950;28;20244;-65
2021/12/16 05:10:29;;;;;;;15.47;10.77;;;9.00;99.90;;;;;;5037194;28;20199;-66
2021/12/16 05:12:58;;;;;;;14.43;10.43;;;9.00;99.90;;;;;;5032143;28;20967;-66
2021/12/16 05:15:29;;;;;;;16.90;11.93;;;8.90;99.90;;;;;;5038169;28;20309;-65
2021/12/16 05:17:58;;;;;;;16.17;10.73;;;8.80;99.90;;;;;;5028899;28;20194;-64
2021/12/16 05:20:28;;;;;;;14.40;10.37;;;8.80;99.90;;;;;;5037136;28;20191;-65
2021/12/16 05:28:08;;;;;;;15.33;10.87;;;8.60;99.90;;;;;;5040260;28;20238;-64
2021/12/16 05:30:34;;;;;;;15.90;10.73;;;8.50;99.90;;;;;;5062250;28;20230;-64
2021/12/16 05:32:59;;;;;;;18.27;10.73;;;8.50;99.90;;;;;;5047178;28;20214;-65
2021/12/16 05:35:26;;;;;;;15.70;12.27;;;8.40;99.90;;;;;;5059714;28;20208;-64
2021/12/16 05:37:52;;;;;;;14.93;11.37;;;8.40;99.90;;;;;;5045681;28;20216;-65
2021/12/16 05:40:26;;;;;;;15.20;11.70;;;8.30;99.90;;;;;;5056246;28;20706;-65
2021/12/16 05:43:02;;;;;;;17.77;11.03;;;8.30;99.90;;;;;;5035578;28;20616;-65
2021/12/16 05:45:29;;;;;;;18.70;12.13;;;8.20;99.90;;;;;;5064513;28;20186;-64
2021/12/16 05:47:58;;;;;;;18.50;12.13;;;8.20;99.90;;;;;;5047694;28;20226;-64
2021/12/16 05:50:26;;;;;;;20.23;12.17;;;8.20;99.90;;;;;;5037396;28;20556;-66
2021/12/16 05:52:52;;;;;;;18.40;12.47;;;8.20;99.90;;;;;;5033326;28;20195;-67
2021/12/16 05:55:19;;;;;;;25.10;12.80;;;8.20;99.90;;;;;;5046150;28;20191;-65
2021/12/16 05:57:46;;;;;;;16.67;11.80;;;8.10;99.90;;;;;;5042687;28;20233;-66
2021/12/16 06:00:20;;;;;;;16.33;11.70;;;8.10;99.90;;;;;;5046746;28;20306;-65
2021/12/16 06:02:46;;;;;;;19.80;12.17;;;8.10;99.90;;;;;;5034039;28;20289;-65
2021/12/16 06:05:13;;;;;;;18.43;12.47;;;8.10;99.90;;;;;;5046875;28;20511;-65
2021/12/16 06:07:38;;;;;;;21.00;13.27;;;8.00;99.90;;;;;;5051548;28;20196;-65
2021/12/16 06:10:06;;;;;;;18.57;12.80;;;8.00;99.90;;;;;;5038378;28;20207;-65
2021/12/16 06:12:31;;;;;;;19.03;12.23;;;8.00;99.90;;;;;;5055247;28;20199;-65
2021/12/16 06:15:19;;;;;;;18.33;13.00;;;8.10;99.90;;;;;;5033895;28;20256;-65
2021/12/16 06:28:33;;;;;;;21.23;13.03;;;8.20;99.90;;;;;;5027969;28;20228;-65
2021/12/16 06:30:59;;;;;;;19.07;13.67;;;8.20;99.90;;;;;;5038017;28;20204;-65
2021/12/16 06:33:25;;;;;;;27.60;13.33;;;8.10;99.90;;;;;;5065560;28;20190;-64
2021/12/16 06:35:54;;;;;;;18.53;11.93;;;8.10;99.90;;;;;;5036993;28;20306;-65
2021/12/16 06:38:23;;;;;;;18.67;13.60;;;8.10;99.90;;;;;;5055945;28;20225;-64
2021/12/16 06:40:49;;;;;;;20.83;14.60;;;8.10;99.90;;;;;;5039964;28;20579;-64
2021/12/16 06:43:17;;;;;;;23.20;13.87;;;8.10;99.90;;;;;;5051526;28;20199;-65
2021/12/16 06:45:46;;;;;;;23.17;13.67;;;8.10;99.90;;;;;;5038542;28;20234;-64
2021/12/16 06:48:17;;;;;;;26.03;14.30;;;8.10;99.90;;;;;;5052616;28;20223;-64
2021/12/16 06:50:50;;;;;;;24.00;14.43;;;8.20;99.90;;;;;;5032247;28;20211;-64
2021/12/16 06:53:24;;;;;;;26.93;13.67;;;8.10;99.90;;;;;;5038488;28;20202;-64
2021/12/16 06:56:01;;;;;;;21.60;12.73;;;8.10;99.90;;;;;;5025662;28;20202;-65
2021/12/16 06:58:34;;;;;;;23.03;13.40;;;8.10;99.90;;;;;;5039247;28;20214;-64
2021/12/16 07:02:02;;;;;;;21.53;12.87;;;8.10;99.90;;;;;;5025594;28;20215;-65
2021/12/16 07:03:48;;;;;;;20.23;12.83;;;8.20;99.90;;;;;;5042990;28;20217;-64
2021/12/16 07:06:21;;;;;;;22.40;13.17;;;8.20;99.90;;;;;;5031519;28;20191;-64
2021/12/16 07:08:50;;;;;;;18.83;12.50;;;8.20;99.90;;;;;;5028189;28;20228;-64
2021/12/16 07:11:16;;;;;;;21.67;13.73;;;8.20;99.90;;;;;;5036611;28;20206;-65
2021/12/16 07:13:45;;;;;;;18.53;12.40;;;8.20;99.90;;;;;;5059692;28;20195;-64
2021/12/16 07:16:14;;;;;;;25.73;11.83;;;8.30;99.90;;;;;;5040998;28;20662;-64
2021/12/16 07:18:40;;;;;;;22.10;12.77;;;8.30;99.90;;;;;;5069615;28;20237;-64
2021/12/16 07:21:07;;;;;;;24.77;13.03;;;8.30;99.90;;;;;;5039774;28;20572;-64
2021/12/16 07:23:33;;;;;;;20.50;13.40;;;8.30;99.90;;;;;;5055938;28;20198;-63
2021/12/16 07:25:59;;;;;;;20.30;13.77;;;8.30;99.90;;;;;;5040464;28;20203;-64
2021/12/16 07:28:25;;;;;;;19.47;12.33;;;8.30;99.90;;;;;;5066033;28;20247;-63
2021/12/16 07:30:51;;;;;;;17.27;13.13;;;8.30;99.90;;;;;;5044569;28;20211;-65
2021/12/16 07:33:17;;;;;;;24.03;12.50;;;8.30;99.90;;;;;;5058363;28;20203;-64
2021/12/16 07:35:45;;;;;;;20.80;12.53;;;8.40;99.90;;;;;;5036909;28;20207;-64
2021/12/16 07:38:11;;;;;;;22.53;11.60;;;8.40;99.90;;;;;;5069029;28;20220;-65
2021/12/16 07:40:39;;;;;;;20.83;12.03;;;8.40;99.90;;;;;;5036465;28;20198;-65
2021/12/16 07:45:42;;;;;;;13.67;10.33;;;8.40;99.90;;;;;;5041395;28;20209;-67
2021/12/16 07:48:09;;;;;;;17.50;13.13;;;8.30;99.90;;;;;;5035908;28;20186;-64
2021/12/16 07:50:35;;;;;;;14.87;10.40;;;8.40;99.90;;;;;;5036592;28;20211;-65
2021/12/16 07:53:01;;;;;;;18.90;11.33;;;8.40;99.90;;;;;;5040282;28;20199;-79
2021/12/16 07:55:27;;;;;;;18.87;10.73;;;8.40;99.90;;;;;;5033504;28;20568;-65
2021/12/16 07:57:52;;;;;;;12.77;9.53;;;8.30;99.90;;;;;;5039893;28;20203;-65
2021/12/16 08:00:22;;;;;;;18.97;10.60;;;8.30;99.90;;;;;;5041618;28;20210;-65
2021/12/16 08:02:48;;;;;;;18.27;10.50;;;8.30;99.90;;;;;;5037838;28;20224;-64
2021/12/16 08:05:16;;;;;;;15.37;9.80;;;8.30;99.90;;;;;;5031081;28;20270;-65
2021/12/16 08:07:42;;;;;;;16.90;12.63;;;8.40;99.90;;;;;;5037875;28;20192;-64
2021/12/16 08:10:13;;;;;;;14.13;10.83;;;8.40;99.90;;;;;;5032860;28;20227;-64
2021/12/16 08:12:39;;;;;;;15.93;10.70;;;8.40;99.90;;;;;;5033180;28;20172;-65
2021/12/16 08:15:06;;;;;;;15.97;11.03;;;8.40;99.90;;;;;;5037660;28;20314;-65
2021/12/16 08:17:31;;;;;;;17.23;10.80;;;8.40;99.90;;;;;;5035315;28;20187;-65
2021/12/16 08:19:57;;;;;;;17.10;12.17;;;8.40;99.90;;;;;;5034391;28;20211;-65
2021/12/16 08:22:22;;;;;;;16.77;10.63;;;8.50;99.90;;;;;;5037293;28;20274;-66
2021/12/16 08:24:48;;;;;;;19.67;11.83;;;8.50;99.90;;;;;;5034916;28;20553;-65
2021/12/16 08:27:15;;;;;;;16.97;11.10;;;8.50;99.90;;;;;;5037068;28;20212;-65
2021/12/16 08:29:41;;;;;;;18.43;9.67;;;8.50;99.90;;;;;;5042144;28;20205;-66
2021/12/16 08:32:08;;;;;;;10.57;9.00;;;8.50;99.90;;;;;;5044145;28;20207;-64
2021/12/16 08:34:37;;;;;;;17.57;11.33;;;8.50;99.90;;;;;;5041227;28;20207;-65
2021/12/16 08:37:06;;;;;;;13.90;10.13;;;8.50;99.90;;;;;;5060618;28;20207;-65
2021/12/16 08:39:32;;;;;;;14.53;9.87;;;8.50;99.90;;;;;;5041209;28;20224;-65
2021/12/16 08:41:59;;;;;;;16.17;10.20;;;8.50;99.90;;;;;;5045770;28;20632;-64
2021/12/16 08:44:25;;;;;;;16.27;10.13;;;8.50;99.90;;;;;;5042107;28;20202;-65
2021/12/16 08:46:55;;;;;;;14.17;10.37;;;8.50;99.90;;;;;;5057204;28;20195;-64
2021/12/16 08:49:21;;;;;;;14.23;10.03;;;8.50;99.90;;;;;;5048962;28;20207;-65
2021/12/16 08:51:51;;;;;;;14.07;10.50;;;8.50;99.90;;;;;;5042039;28;20261;-65
2021/12/16 08:54:19;;;;;;;14.73;10.20;;;8.50;99.90;;;;;;5045274;28;20693;-64
2021/12/16 08:56:45;;;;;;;19.40;10.50;;;8.50;99.90;;;;;;5048640;28;20227;-64
2021/12/16 08:59:12;;;;;;;18.30;10.10;;;8.60;99.90;;;;;;5044461;28;20273;-66
2021/12/16 09:01:42;;;;;;;15.57;9.77;;;8.60;99.90;;;;;;5055591;28;20286;-64
2021/12/16 09:04:08;;;;;;;22.10;10.63;;;8.60;99.90;;;;;;5031126;28;20199;-64
2021/12/16 09:06:35;;;;;;;15.13;10.60;;;8.60;99.90;;;;;;5046669;28;20194;-65
2021/12/16 09:09:00;;;;;;;14.90;10.27;;;8.60;99.90;;;;;;5038876;28;20204;-65
2021/12/16 09:11:30;;;;;;;15.80;9.53;;;8.60;99.90;;;;;;5037097;28;20193;-65
2021/12/16 09:13:58;;;;;;;15.97;9.80;;;8.60;99.90;;;;;;5040742;28;20203;-65
2021/12/16 09:16:26;;;;;;;15.20;10.43;;;8.60;99.90;;;;;;5052913;28;20232;-64
2021/12/16 09:18:53;;;;;;;14.23;9.60;;;8.60;99.90;;;;;;5051521;28;20223;-65
2021/12/16 09:21:26;;;;;;;14.07;9.90;;;8.60;99.90;;;;;;5036172;28;20556;-65
2021/12/16 09:23:52;;;;;;;14.43;9.67;;;8.60;99.90;;;;;;5033376;28;20200;-64
2021/12/16 09:26:19;;;;;;;18.33;10.40;;;8.60;99.90;;;;;;5027688;28;20712;-65
2021/12/16 09:28:45;;;;;;;15.43;9.97;;;8.60;99.90;;;;;;5050670;28;20241;-66
2021/12/16 09:31:13;;;;;;;15.33;10.40;;;8.60;99.90;;;;;;5032467;28;20633;-66
2021/12/16 09:33:43;;;;;;;12.07;8.93;;;8.60;99.90;;;;;;5052533;28;20203;-65
2021/12/16 09:36:10;;;;;;;18.87;10.07;;;8.70;99.90;;;;;;5030546;28;20566;-65
2021/12/16 09:38:36;;;;;;;15.13;10.00;;;8.70;99.90;;;;;;5056342;28;20284;-66
2021/12/16 09:41:02;;;;;;;14.73;10.27;;;8.70;99.90;;;;;;5032273;28;20181;-65
2021/12/16 09:43:31;;;;;;;12.30;8.23;;;8.70;99.90;;;;;;5057826;28;20186;-65
2021/12/16 09:46:01;;;;;;;12.30;9.30;;;8.80;99.90;;;;;;5037141;28;20187;-65
2021/12/16 09:48:27;;;;;;;18.00;11.13;;;8.80;99.90;;;;;;5043823;28;20234;-65
2021/12/16 09:50:54;;;;;;;13.17;8.57;;;8.80;99.90;;;;;;5024817;28;20215;-65
2021/12/16 09:53:21;;;;;;;10.87;8.70;;;8.80;99.90;;;;;;5049325;28;20260;-65
2021/12/16 09:55:51;;;;;;;12.20;8.63;;;8.80;99.90;;;;;;5031330;28;20802;-65
2021/12/16 09:58:17;;;;;;;9.73;8.20;;;8.80;99.90;;;;;;5023706;28;20191;-65
2021/12/16 10:00:43;;;;;;;11.40;9.17;;;8.80;99.90;;;;;;5030603;28;20194;-65
2021/12/16 10:03:09;;;;;;;13.33;8.17;;;8.80;99.90;;;;;;5057880;28;20727;-65
2021/12/16 10:05:35;;;;;;;9.40;7.97;;;8.90;99.90;;;;;;5029076;28;20207;-64
2021/12/16 10:08:04;;;;;;;13.93;8.53;;;8.90;99.90;;;;;;5045561;28;20646;-64
2021/12/16 10:10:34;;;;;;;15.03;9.77;;;8.90;99.90;;;;;;5046140;28;20202;-63
2021/12/16 10:13:02;;;;;;;10.37;8.27;;;8.90;99.90;;;;;;5055331;28;20199;-63
2021/12/16 10:18:07;;;;;;;9.77;8.47;;;8.90;99.90;;;;;;5055471;28;20201;-63
2021/12/16 10:20:48;;;;;;;9.67;7.23;;;8.90;99.90;;;;;;5026167;28;20271;-65
2021/12/16 10:23:19;;;;;;;11.63;8.07;;;9.00;99.90;;;;;;5026595;28;20187;-65
2021/12/16 10:25:52;;;;;;;12.30;9.13;;;9.00;99.90;;;;;;5038392;28;20184;-65
2021/12/16 10:28:24;;;;;;;11.23;8.80;;;9.10;99.90;;;;;;5026361;28;20188;-65
2021/12/16 10:30:52;;;;;;;11.47;9.37;;;9.10;99.90;;;;;;5036239;28;20191;-64
2021/12/16 10:33:38;;;;;;;11.70;8.87;;;9.10;99.90;;;;;;5043509;28;20198;-64
2021/12/16 10:36:09;;;;;;;11.63;8.07;;;9.10;99.90;;;;;;5038703;28;20198;-63
2021/12/16 10:39:07;;;;;;;12.43;8.83;;;9.10;99.90;;;;;;5026404;28;20221;-64
2021/12/16 10:41:36;;;;;;;11.00;7.27;;;9.10;99.90;;;;;;5043764;28;20582;-64
2021/12/16 10:44:17;;;;;;;10.53;6.87;;;9.10;99.90;;;;;;5056249;28;20372;-66
2021/12/16 10:47:03;;;;;;;9.17;7.57;;;9.20;99.90;;;;;;5033315;28;20180;-65
2021/12/16 10:49:35;;;;;;;12.47;7.83;;;9.20;99.90;;;;;;5025385;28;20655;-64
2021/12/16 10:52:08;;;;;;;12.20;8.27;;;9.20;99.90;;;;;;5027652;28;20195;-66
2021/12/16 10:54:41;;;;;;;12.43;7.07;;;9.20;99.90;;;;;;5026855;28;20291;-64
2021/12/16 10:57:11;;;;;;;9.87;7.27;;;9.20;99.90;;;;;;5031250;28;20203;-64
2021/12/16 10:59:44;;;;;;;10.83;7.53;;;9.20;99.90;;;;;;5033681;28;20214;-65
2021/12/16 11:02:17;;;;;;;7.73;6.27;;;9.20;99.90;;;;;;5041081;28;20199;-66
2021/12/16 11:05:11;;;;;;;9.00;6.30;;;9.30;99.90;;;;;;5041294;28;20200;-65
2021/12/16 11:07:42;;;;;;;8.00;6.67;;;9.30;99.90;;;;;;5027186;28;20773;-64
2021/12/16 11:10:12;;;;;;;7.87;5.87;;;9.40;99.90;;;;;;5025415;28;20212;-66
2021/12/16 11:12:43;;;;;;;9.53;6.33;;;9.50;99.90;;;;;;5042373;28;20287;-66
2021/12/16 11:15:22;;;;;;;7.17;5.23;;;9.50;99.90;;;;;;5041768;28;20223;-73
2021/12/16 11:18:02;;;;;;;6.93;6.07;;;9.50;99.90;;;;;;5040194;28;20185;-76
2021/12/16 11:20:37;;;;;;;9.17;5.20;;;9.60;99.90;;;;;;5024298;28;20564;-75
2021/12/16 11:23:22;;;;;;;7.37;5.73;;;9.70;99.90;;;;;;5056786;28;20179;-76
2021/12/16 11:25:58;;;;;;;9.47;6.40;;;9.80;99.90;;;;;;5051261;28;20182;-76
2021/12/16 11:28:31;;;;;;;5.80;5.20;;;9.90;99.90;;;;;;5032968;28;20283;-75
2021/12/16 11:31:15;;;;;;;5.73;4.80;;;10.00;99.90;;;;;;5035532;28;20208;-74
2021/12/16 11:33:53;;;;;;;7.47;5.37;;;10.00;99.90;;;;;;5032646;28;20210;-72
2021/12/16 11:36:29;;;;;;;9.67;5.73;;;10.00;99.90;;;;;;5032600;28;20654;-75
2021/12/16 11:39:07;;;;;;;6.40;5.47;;;10.00;99.90;;;;;;5034572;28;20226;-72
2021/12/16 11:41:50;;;;;;;9.30;6.23;;;10.00;99.90;;;;;;5036004;28;20236;-74
2021/12/16 11:44:29;;;;;;;7.47;5.87;;;10.00;99.90;;;;;;5035505;28;20202;-73
2021/12/16 11:47:03;;;;;;;6.73;5.40;;;10.30;99.90;;;;;;5034530;28;20184;-74
2021/12/16 11:49:33;;;;;;;6.77;5.47;;;10.80;99.90;;;;;;5035250;28;20192;-74
2021/12/16 11:52:19;;;;;;;5.63;4.93;;;11.10;99.90;;;;;;5038358;28;20188;-73
2021/12/16 11:55:12;;;;;;;5.10;4.67;;;11.00;99.90;;;;;;5035686;28;20203;-74
2021/12/16 11:57:45;;;;;;;6.57;4.83;;;10.80;99.90;;;;;;5034784;28;20280;-74
2021/12/16 12:00:21;;;;;;;5.67;4.03;;;10.70;99.90;;;;;;5034920;28;20299;-74
2021/12/16 12:02:54;;;;;;;4.70;3.70;;;10.70;99.90;;;;;;5036193;28;20218;-73
2021/12/16 12:05:29;;;;;;;4.03;3.30;;;10.60;99.90;;;;;;5034677;28;20206;-73
2021/12/16 12:07:56;;;;;;;5.93;4.37;;;10.40;99.90;;;;;;5034157;28;20173;-73
2021/12/16 12:10:45;;;;;;;5.97;4.13;;;10.40;99.90;;;;;;5031367;28;20248;-75
2021/12/16 12:13:27;;;;;;;5.00;3.47;;;10.30;99.90;;;;;;5029668;28;20197;-79
2021/12/16 12:16:00;;;;;;;6.43;4.33;;;10.90;99.90;;;;;;5052027;28;20238;-77
2021/12/16 12:18:45;;;;;;;4.53;4.13;;;11.70;99.90;;;;;;5059235;28;20239;-77
2021/12/16 12:21:18;;;;;;;4.33;3.87;;;12.40;99.90;;;;;;5036638;28;20188;-82
2021/12/16 12:23:44;;;;;;;5.77;3.53;;;13.50;99.90;;;;;;5044814;28;20294;-80
2021/12/16 12:26:16;;;;;;;4.30;3.20;;;13.90;99.90;;;;;;5039958;28;20186;-79
2021/12/16 12:28:46;;;;;;;3.07;2.50;;;14.30;99.90;;;;;;5024124;28;20268;-77
2021/12/16 12:31:13;;;;;;;2.03;1.83;;;14.90;99.90;;;;;;5038091;28;20198;-77
2021/12/16 12:33:39;;;;;;;3.17;2.87;;;14.50;99.90;;;;;;5056323;28;20202;-78
2021/12/16 12:36:05;;;;;;;3.23;2.33;;;14.40;99.90;;;;;;5036113;28;20232;-77
2021/12/16 12:38:31;;;;;;;4.23;2.50;;;14.40;99.90;;;;;;5043169;28;20202;-74
2021/12/16 12:40:57;;;;;;;5.37;2.40;;;14.20;99.90;;;;;;5038734;28;20697;-84
2021/12/16 12:43:23;;;;;;;3.87;2.77;;;13.90;99.90;;;;;;5048644;28;20641;-90
2021/12/16 12:45:49;;;;;;;4.77;2.53;;;13.60;99.90;;;;;;5029318;28;20185;-89
2021/12/16 12:48:17;;;;;;;9.50;2.83;;;13.20;99.90;;;;;;5043623;28;20548;-82
2021/12/16 12:50:45;;;;;;;5.03;2.63;;;12.70;99.90;;;;;;5032000;28;20179;-81
2021/12/16 12:53:18;;;;;;;3.90;3.17;;;12.40;99.90;;;;;;5035007;28;20195;-85
2021/12/16 12:55:46;;;;;;;4.73;2.70;;;12.10;99.90;;;;;;5032498;28;20275;-83
2021/12/16 12:58:14;;;;;;;3.87;3.13;;;11.90;99.90;;;;;;5033468;28;20198;-82
2021/12/16 13:00:51;;;;;;;4.20;2.90;;;11.50;99.90;;;;;;5034591;28;20856;-81
2021/12/16 13:03:30;;;;;;;3.73;2.80;;;11.30;99.90;;;;;;5028905;28;20236;-81
2021/12/16 13:06:01;;;;;;;3.40;3.10;;;11.10;99.90;;;;;;5033709;28;20893;-81
2021/12/16 13:08:38;;;;;;;4.03;2.80;;;10.90;99.90;;;;;;5029586;28;20659;-78
2021/12/16 13:11:12;;;;;;;4.70;2.77;;;10.80;99.90;;;;;;5029364;28;20198;-83
2021/12/16 13:13:54;;;;;;;4.60;2.90;;;10.60;99.90;;;;;;5028223;28;20200;-82
2021/12/16 13:16:56;;;;;;;6.00;2.50;;;10.50;99.90;;;;;;5040988;28;20224;-77
2021/12/16 13:25:58;;;;;;;3.30;2.70;;;10.40;99.90;;;;;;5033621;28;20231;-74
2021/12/16 13:28:18;;;;;;;3.80;3.47;;;10.40;99.90;;;;;;5040313;28;20204;-74
2021/12/16 13:31:02;;;;;;;3.07;2.60;;;10.50;99.90;;;;;;5035176;28;20186;-76
2021/12/16 13:33:43;;;;;;;4.50;2.77;;;10.50;99.90;;;;;;5045590;28;20200;-73
2021/12/16 13:36:26;;;;;;;4.20;2.43;;;10.50;99.90;;;;;;5027479;28;20947;-71
2021/12/16 13:38:52;;;;;;;5.00;2.87;;;10.50;99.90;;;;;;5034303;28;20217;-71
2021/12/16 13:41:22;;;;;;;4.43;2.67;;;10.40;99.90;;;;;;5060452;28;20190;-70
2021/12/16 13:44:10;;;;;;;4.00;2.27;;;10.30;99.90;;;;;;5046565;28;20701;-70
2021/12/16 13:47:06;;;;;;;3.33;2.47;;;10.20;99.90;;;;;;5034456;28;20187;-72
2021/12/16 13:58:55;;;;;;;3.67;2.27;;;9.90;99.90;;;;;;5026434;28;20208;-74
2021/12/16 14:02:05;;;;;;;5.30;2.40;;;9.80;99.90;;;;;;5051503;28;20413;-73
2021/12/16 14:04:25;;;;;;;6.87;3.03;;;9.70;99.90;;;;;;5036875;28;20212;-75
2021/12/16 14:07:12;;;;;;;6.10;2.30;;;9.70;99.90;;;;;;5044778;28;20206;-73
2021/12/16 14:09:51;;;;;;;4.33;2.50;;;9.60;99.90;;;;;;5031976;28;20211;-73
2021/12/16 14:17:53;;;;;;;6.70;2.53;;;9.50;99.90;;;;;;5049511;28;20199;-73
2021/12/16 14:23:34;;;;;;;5.47;2.03;;;9.40;99.90;;;;;;5026122;28;20198;-73
2021/12/16 14:34:51;;;;;;;5.77;2.60;;;9.30;99.90;;;;;;5053695;28;20202;-73
2021/12/16 14:39:56;;;;;;;4.83;2.80;;;9.10;99.90;;;;;;5038141;28;20219;-76
2021/12/16 14:42:41;;;;;;;3.03;2.73;;;9.10;99.90;;;;;;5036523;28;20194;-73
2021/12/16 14:45:19;;;;;;;2.80;2.60;;;9.10;99.90;;;;;;5035613;28;20255;-74
2021/12/16 14:50:52;;;;;;;6.40;2.80;;;9.00;99.90;;;;;;5037450;28;20266;-73
2021/12/16 14:53:28;;;;;;;6.23;2.60;;;8.90;99.90;;;;;;5032564;28;20253;-72
2021/12/16 14:56:04;;;;;;;5.83;2.43;;;8.90;99.90;;;;;;5033325;28;20182;-72
2021/12/16 14:58:30;;;;;;;9.17;3.00;;;8.90;99.90;;;;;;5029530;28;20198;-74
2021/12/16 15:01:05;;;;;;;7.13;2.60;;;8.80;99.90;;;;;;5033608;28;20176;-72
2021/12/16 15:03:36;;;;;;;7.17;2.43;;;8.80;99.90;;;;;;5032993;28;20286;-74
2021/12/16 15:06:06;;;;;;;6.27;3.07;;;8.70;99.90;;;;;;5036236;28;20249;-74
2021/12/16 15:08:45;;;;;;;4.97;2.97;;;8.70;99.90;;;;;;5036950;28;20289;-74
2021/12/16 15:11:16;;;;;;;3.00;2.33;;;8.60;99.90;;;;;;5034796;28;20195;-74
2021/12/16 15:13:52;;;;;;;7.43;3.13;;;8.60;99.90;;;;;;5033311;28;20203;-72
2021/12/16 15:39:15;;;;;;;2.77;2.40;;;8.30;99.90;;;;;;5050504;28;20393;-75
2021/12/16 15:44:13;;;;;;;6.67;2.43;;;8.30;99.90;;;;;;5037841;28;20201;-77
2021/12/16 15:46:40;;;;;;;7.70;3.00;;;8.30;99.90;;;;;;5053060;28;20203;-76
2021/12/16 15:49:07;;;;;;;6.27;2.73;;;8.30;99.90;;;;;;5053980;28;20207;-76
2021/12/16 15:51:35;;;;;;;7.90;3.03;;;8.30;99.90;;;;;;5049283;28;20212;-77
2021/12/16 15:54:04;;;;;;;6.47;2.60;;;8.20;99.90;;;;;;5057852;23;20802;-77
2021/12/16 15:56:36;;;;;;;3.53;2.33;;;8.20;99.90;;;;;;5030906;28;20211;-76
2021/12/16 15:59:10;;;;;;;6.60;3.40;;;8.20;99.90;;;;;;5038330;28;20214;-77
2021/12/16 16:01:42;;;;;;;6.73;2.57;;;8.10;99.90;;;;;;5039342;28;20195;-76
2021/12/16 16:04:17;;;;;;;7.33;2.47;;;8.10;99.90;;;;;;5034240;28;20183;-75
2021/12/16 16:06:49;;;;;;;4.23;2.37;;;8.10;99.90;;;;;;5022554;28;20236;-77
2021/12/16 16:09:15;;;;;;;6.40;3.10;;;8.00;99.90;;;;;;5034542;28;20191;-76
2021/12/16 16:11:48;;;;;;;5.43;2.60;;;8.00;99.90;;;;;;5045782;28;20226;-75
2021/12/16 16:14:16;;;;;;;4.57;3.20;;;8.00;99.90;;;;;;5058748;28;20191;-76